Time;durP1;ratioP1;P1;durP2;ratioP2;P2;SDS_P1;SDS_P2;PMS_P1;PMS_P2;Temp;Humidity;BMP_temperature;BMP_pressure;BME280_temperature;BME280_humidity;BME280_pressure;Samples;Min_cycle;Max_cycle;Signal;HPM_P1;HPM_P2
2024/02/13 00:01:20;;;;;;;1.4;1.1;;;;;;;5.99;93.25098;935.014;;;;
2024/02/13 00:03:46;;;;;;;1.5;0.9;;;;;;;5.94;93.81543;935.0595;;;;
2024/02/13 00:06:10;;;;;;;1.3;1.2;;;;;;;5.89;93.78223;935.0494;;;;
2024/02/13 00:08:36;;;;;;;2.3;1.4;;;;;;;5.88;93.85742;935.1053;;;;
2024/02/13 00:11:04;;;;;;;1.2;1;;;;;;;5.87;93.91211;935.1099;;;;
2024/02/13 00:13:26;;;;;;;1.2;1.1;;;;;;;5.91;93.78613;935.1735;;;;
2024/02/13 00:15:51;;;;;;;1.5;1.1;;;;;;;5.95;93.48926;935.2297;;;;
2024/02/13 00:18:18;;;;;;;1.9;0.9;;;;;;;5.93;93.7793;935.2679;;;;
2024/02/13 00:20:42;;;;;;;0.9;0.8;;;;;;;5.94;93.80371;935.2886;;;;
2024/02/13 00:23:07;;;;;;;1.2;1;;;;;;;5.99;93.44238;935.4147;;;;
2024/02/13 00:25:31;;;;;;;1.9;1.4;;;;;;;5.94;93.64551;935.4444;;;;
2024/02/13 00:27:56;;;;;;;1;0.9;;;;;;;5.79;94.02051;935.4665;;;;
2024/02/13 00:30:21;;;;;;;1.2;1;;;;;;;5.75;93.46875;935.4869;;;;
2024/02/13 00:32:47;;;;;;;3.2;1.5;;;;;;;5.71;94.00293;935.5215;;;;
2024/02/13 00:35:13;;;;;;;1.4;1.2;;;;;;;5.59;94.83496;935.5454;;;;
2024/02/13 00:37:38;;;;;;;1.4;1.2;;;;;;;5.56;95.2666;935.5651;;;;
2024/02/13 00:40:05;;;;;;;1.5;1.2;;;;;;;5.58;95.0918;935.5309;;;;
2024/02/13 00:42:28;;;;;;;1.6;1.5;;;;;;;5.58;95.39453;935.5466;;;;
2024/02/13 00:44:53;;;;;;;1.9;1.7;;;;;;;5.58;95.39453;935.6106;;;;
2024/02/13 00:47:19;;;;;;;1.5;1.4;;;;;;;5.63;95.35254;935.6044;;;;
2024/02/13 00:49:45;;;;;;;1.4;1.2;;;;;;;5.6;95.53418;935.6995;;;;
2024/02/13 00:52:08;;;;;;;3.6;3.3;;;;;;;5.6;95.26563;935.7589;;;;
2024/02/13 00:54:33;;;;;;;65.3;58.3;;;;;;;5.53;95.67871;935.7831;;;;
2024/02/13 00:56:58;;;;;;;31.3;28;;;;;;;5.6;94.74609;935.8276;;;;
2024/02/13 00:59:25;;;;;;;7.7;6.7;;;;;;;5.62;95.17969;935.7698;;;;
2024/02/13 01:01:48;;;;;;;4.3;2.5;;;;;;;5.63;95.2832;935.8452;;;;
2024/02/13 01:04:14;;;;;;;5.4;3.9;;;;;;;5.68;95.4082;935.9182;;;;
2024/02/13 01:06:39;;;;;;;4.6;3.7;;;;;;;5.7;95.49121;935.9281;;;;
2024/02/13 01:09:05;;;;;;;3.1;2.8;;;;;;;5.67;95.6748;935.9494;;;;
2024/02/13 01:11:30;;;;;;;1.7;1.6;;;;;;;5.65;95.41309;935.9761;;;;
2024/02/13 01:13:55;;;;;;;1.8;1.6;;;;;;;5.69;95.20508;936.0051;;;;
2024/02/13 01:16:22;;;;;;;1.5;1.4;;;;;;;5.67;95.52832;936.0158;;;;
2024/02/13 01:18:45;;;;;;;2.5;1.7;;;;;;;5.65;95.53711;936.0977;;;;
2024/02/13 01:21:14;;;;;;;1.9;1.3;;;;;;;5.67;95.30273;936.1075;;;;
2024/02/13 01:23:37;;;;;;;1.9;1.4;;;;;;;5.74;95.11719;936.1384;;;;
2024/02/13 01:26:03;;;;;;;1.3;1.2;;;;;;;5.71;95.1543;936.2112;;;;
2024/02/13 01:28:26;;;;;;;1.3;1.2;;;;;;;5.65;95.43359;936.3116;;;;
2024/02/13 01:30:51;;;;;;;1.2;1.1;;;;;;;5.64;95.54492;936.3003;;;;
2024/02/13 01:33:16;;;;;;;1.7;1.2;;;;;;;5.58;95.65625;936.3199;;;;
2024/02/13 01:35:42;;;;;;;1.8;1.2;;;;;;;5.59;95.89551;936.4149;;;;
2024/02/13 01:38:09;;;;;;;1.7;1.1;;;;;;;5.75;94.95898;936.5209;;;;
2024/02/13 01:40:31;;;;;;;1.7;1;;;;;;;5.7;95.18652;936.5151;;;;
2024/02/13 01:42:56;;;;;;;1.3;0.9;;;;;;;5.63;95.40723;936.3744;;;;
2024/02/13 01:45:23;;;;;;;1.1;0.9;;;;;;;5.59;95.56836;936.3834;;;;
2024/02/13 01:47:47;;;;;;;1.4;1.2;;;;;;;5.68;94.98828;936.4758;;;;
2024/02/13 01:50:14;;;;;;;1.3;1.2;;;;;;;5.61;95.48047;936.4322;;;;
2024/02/13 01:52:37;;;;;;;0.9;0.9;;;;;;;5.56;95.41602;936.5128;;;;
2024/02/13 01:55:03;;;;;;;1.4;1.2;;;;;;;5.57;95.47363;936.4792;;;;
2024/02/13 01:57:29;;;;;;;2.2;1.4;;;;;;;5.6;95.45508;936.5872;;;;
2024/02/13 01:59:52;;;;;;;2.2;1.3;;;;;;;5.62;95.49512;936.6497;;;;
2024/02/13 02:02:18;;;;;;;1.8;1.4;;;;;;;5.59;95.31836;936.6951;;;;
2024/02/13 02:04:43;;;;;;;1.7;1.6;;;;;;;5.6;95.44629;936.6774;;;;
2024/02/13 02:07:08;;;;;;;2.6;2.4;;;;;;;5.56;95.50586;936.7119;;;;
2024/02/13 02:09:33;;;;;;;3.1;2.7;;;;;;;5.64;95.13867;936.6795;;;;
2024/02/13 02:11:59;;;;;;;2;1.8;;;;;;;5.64;95.10449;936.7593;;;;
2024/02/13 02:14:23;;;;;;;1.8;1.5;;;;;;;5.66;94.98438;936.7825;;;;
2024/02/13 02:16:49;;;;;;;1.7;1.6;;;;;;;5.64;95.07031;936.7972;;;;
2024/02/13 02:19:14;;;;;;;1.6;1.5;;;;;;;5.61;95.03223;936.7633;;;;
2024/02/13 02:21:40;;;;;;;0.9;0.9;;;;;;;5.52;95.5752;936.8309;;;;
2024/02/13 02:26:16;;;;;;;1;0.9;;;;;;;5.48;95.125;936.9088;;;;
2024/02/13 02:28:43;;;;;;;1.4;1;;;;;;;5.46;95.3125;936.9673;;;;
2024/02/13 02:31:06;;;;;;;2.3;1.1;;;;;;;5.47;95.41602;937.0222;;;;
2024/02/13 02:33:31;;;;;;;1.3;1.2;;;;;;;5.45;95.6582;937.0903;;;;
2024/02/13 02:35:56;;;;;;;1.1;1;;;;;;;5.41;95.90039;937.0427;;;;
2024/02/13 02:38:22;;;;;;;1.3;1.2;;;;;;;5.43;95.78223;937.1129;;;;
2024/02/13 02:40:47;;;;;;;1.4;1.3;;;;;;;5.42;95.31543;937.1347;;;;
2024/02/13 02:43:11;;;;;;;1.3;1.2;;;;;;;5.32;95.76758;937.157;;;;
2024/02/13 02:45:37;;;;;;;1.9;1.1;;;;;;;5.27;96.28516;937.1761;;;;
2024/02/13 02:48:02;;;;;;;1.8;1.2;;;;;;;5.32;95.83301;937.1624;;;;
2024/02/13 02:50:27;;;;;;;1.6;1.2;;;;;;;5.29;95.56738;937.1908;;;;
2024/02/13 02:52:53;;;;;;;2.1;1.5;;;;;;;5.27;95.65332;937.1942;;;;
2024/02/13 02:55:17;;;;;;;2.4;1.5;;;;;;;5.34;95.54395;937.2505;;;;
2024/02/13 02:57:42;;;;;;;2;1.4;;;;;;;5.41;95.4375;937.342;;;;
2024/02/13 03:00:10;;;;;;;2.3;1.2;;;;;;;5.42;95.55078;937.3691;;;;
2024/02/13 03:02:34;;;;;;;1.4;1;;;;;;;5.29;95.89453;937.2888;;;;
2024/02/13 03:04:58;;;;;;;1.4;1.3;;;;;;;5.25;95.78516;937.3287;;;;
2024/02/13 03:07:24;;;;;;;1.3;1.2;;;;;;;5.27;95.72168;937.4271;;;;
2024/02/13 03:09:48;;;;;;;1.8;1.2;;;;;;;5.31;95.76563;937.4345;;;;
2024/02/13 03:12:13;;;;;;;1.3;1.2;;;;;;;5.29;95.91895;937.4444;;;;
2024/02/13 03:14:38;;;;;;;1.6;1.4;;;;;;;5.27;95.70117;937.4943;;;;
2024/02/13 03:17:06;;;;;;;2.5;1.7;;;;;;;5.34;95.2168;937.4827;;;;
2024/02/13 03:19:29;;;;;;;2.7;1.8;;;;;;;5.31;95.29102;937.5221;;;;
2024/02/13 03:21:54;;;;;;;2.5;1.8;;;;;;;5.27;95.63086;937.514;;;;
2024/02/13 03:24:19;;;;;;;2.1;1.9;;;;;;;5.23;95.69043;937.5595;;;;
2024/02/13 03:26:44;;;;;;;2.1;1.9;;;;;;;5.23;95.74707;937.6242;;;;
2024/02/13 03:29:09;;;;;;;2.4;1.9;;;;;;;5.24;95.65723;937.6795;;;;
2024/02/13 03:31:34;;;;;;;2.5;1.9;;;;;;;5.21;95.77441;937.6616;;;;
2024/02/13 03:34:00;;;;;;;2.8;1.9;;;;;;;5.3;95.50195;937.7224;;;;
2024/02/13 03:36:24;;;;;;;2.9;2.2;;;;;;;5.33;95.22754;937.7753;;;;
2024/02/13 03:38:53;;;;;;;2.7;2.3;;;;;;;5.32;95.30273;937.7347;;;;
2024/02/13 03:41:15;;;;;;;3.1;2.2;;;;;;;5.28;95.27246;937.8552;;;;
2024/02/13 03:43:43;;;;;;;2.3;2;;;;;;;5.3;95.20801;937.8739;;;;
2024/02/13 03:46:06;;;;;;;3.1;2;;;;;;;5.29;95.33008;937.928;;;;
2024/02/13 03:48:30;;;;;;;3.5;2.3;;;;;;;5.32;95.0791;937.9063;;;;
2024/02/13 03:50:55;;;;;;;2.1;1.9;;;;;;;5.3;94.98242;937.986;;;;
2024/02/13 03:53:20;;;;;;;3;1.7;;;;;;;5.27;95.1709;938.0595;;;;
2024/02/13 03:55:46;;;;;;;3.1;1.8;;;;;;;5.27;95.28125;938.0405;;;;
2024/02/13 03:58:12;;;;;;;2.8;2;;;;;;;5.32;95.12402;938.0664;;;;
2024/02/13 04:02:30;;;;;;;2.8;1.8;;;;;;;5.29;95.00391;938.1008;;;;
2024/02/13 04:04:52;;;;;;;3.4;1.7;;;;;;;5.28;95.09375;938.134;;;;
2024/02/13 04:07:17;;;;;;;2.8;1.7;;;;;;;5.39;94.5625;938.084;;;;
2024/02/13 04:09:42;;;;;;;2.6;1.7;;;;;;;5.37;94.52539;938.1791;;;;
2024/02/13 04:12:09;;;;;;;2.4;1.8;;;;;;;5.31;94.53613;938.1964;;;;
2024/02/13 04:14:33;;;;;;;2.3;1.9;;;;;;;5.26;94.79395;938.1696;;;;
2024/02/13 04:16:58;;;;;;;2.2;1.8;;;;;;;5.25;94.99512;938.204;;;;
2024/02/13 04:19:23;;;;;;;2.7;1.9;;;;;;;5.29;94.65332;938.2628;;;;
2024/02/13 04:21:49;;;;;;;2.3;1.9;;;;;;;5.33;94.13379;938.2736;;;;
2024/02/13 04:24:13;;;;;;;1.9;1.7;;;;;;;5.26;94.32031;938.2778;;;;
2024/02/13 04:26:39;;;;;;;1.7;1.6;;;;;;;5.14;94.73438;938.2811;;;;
2024/02/13 04:29:05;;;;;;;2.4;1.6;;;;;;;5.13;94.77734;938.3297;;;;
2024/02/13 04:31:29;;;;;;;3.2;1.7;;;;;;;5.14;94.25;938.3016;;;;
2024/02/13 04:33:54;;;;;;;1.9;1.5;;;;;;;5.08;94.20215;938.3401;;;;
2024/02/13 04:36:19;;;;;;;2.7;1.6;;;;;;;5.04;94.26172;938.3705;;;;
2024/02/13 04:38:44;;;;;;;2.2;1.4;;;;;;;5.07;93.99707;938.3351;;;;
2024/02/13 04:41:09;;;;;;;2.5;1.9;;;;;;;5.02;94.31348;938.3415;;;;
2024/02/13 04:43:35;;;;;;;2.8;1.8;;;;;;;5.12;93.77051;938.3656;;;;
2024/02/13 04:46:00;;;;;;;2.4;1.4;;;;;;;5.08;93.61523;938.4072;;;;
2024/02/13 04:48:25;;;;;;;2.1;1.3;;;;;;;4.93;94.49512;938.395;;;;
2024/02/13 04:50:50;;;;;;;2.5;1.3;;;;;;;4.9;94.58984;938.4219;;;;
2024/02/13 04:53:20;;;;;;;1.6;1.4;;;;;;;4.92;94.65234;938.4163;;;;
2024/02/13 04:55:40;;;;;;;2.5;1.3;;;;;;;5;94.33203;938.3942;;;;
2024/02/13 04:58:07;;;;;;;2.1;1.2;;;;;;;4.97;94.23633;938.4509;;;;
2024/02/13 05:00:35;;;;;;;1.9;1.6;;;;;;;4.94;94.06836;938.4388;;;;
2024/02/13 05:03:03;;;;;;;2.1;1.6;;;;;;;4.83;94.26074;938.4412;;;;
2024/02/13 05:07:46;;;;;;;3.8;1.6;;;;;;;4.85;94.55762;938.4235;;;;
2024/02/13 05:10:12;;;;;;;1.8;1.4;;;;;;;4.8;94.06152;938.4256;;;;
2024/02/13 05:12:36;;;;;;;3.8;2.2;;;;;;;4.73;94.49609;938.4265;;;;
2024/02/13 05:15:02;;;;;;;2.5;1.8;;;;;;;4.67;94.93457;938.4302;;;;
2024/02/13 05:17:26;;;;;;;2.6;1.8;;;;;;;4.78;94.68652;938.5054;;;;
2024/02/13 05:19:51;;;;;;;3.5;3;;;;;;;4.84;94.2832;938.5692;;;;
2024/02/13 05:22:16;;;;;;;5;4;;;;;;;4.77;94.73145;938.5808;;;;
2024/02/13 05:24:41;;;;;;;4.1;3.5;;;;;;;4.71;94.80762;938.5789;;;;
2024/02/13 05:27:07;;;;;;;2.7;2.3;;;;;;;4.68;94.8125;938.5039;;;;
2024/02/13 05:29:33;;;;;;;3.1;2.4;;;;;;;4.72;94.84277;938.6218;;;;
2024/02/13 05:31:57;;;;;;;3.3;3;;;;;;;4.68;94.67773;938.5994;;;;
2024/02/13 05:34:22;;;;;;;6.4;4.7;;;;;;;4.67;94.56055;938.6454;;;;
2024/02/13 05:36:47;;;;;;;4;2.7;;;;;;;4.65;94.5;938.6172;;;;
2024/02/13 05:39:13;;;;;;;2.5;2.1;;;;;;;4.5;94.96191;938.5908;;;;
2024/02/13 05:41:40;;;;;;;4.6;2.9;;;;;;;4.57;95.04785;938.7121;;;;
2024/02/13 05:44:04;;;;;;;3.9;2.4;;;;;;;4.63;95.18164;938.7576;;;;
2024/02/13 05:46:28;;;;;;;2.6;1.9;;;;;;;4.7;95.13184;938.7813;;;;
2024/02/13 05:48:54;;;;;;;2.1;1.3;;;;;;;4.75;94.64844;938.7576;;;;
2024/02/13 05:51:18;;;;;;;2.4;1.3;;;;;;;4.73;94.46191;938.772;;;;
2024/02/13 05:53:43;;;;;;;1.8;1.2;;;;;;;4.63;94.7334;938.7619;;;;
2024/02/13 05:56:08;;;;;;;1.8;1.2;;;;;;;4.56;94.86523;938.757;;;;
2024/02/13 05:58:33;;;;;;;2.8;1.3;;;;;;;4.52;95.15918;938.7075;;;;
2024/02/13 06:00:58;;;;;;;3.2;1.4;;;;;;;4.56;94.71875;938.723;;;;
2024/02/13 06:03:24;;;;;;;1.3;1.1;;;;;;;4.57;95.04785;938.7548;;;;
2024/02/13 06:05:49;;;;;;;2.7;1.4;;;;;;;4.58;95.37598;938.8293;;;;
2024/02/13 06:08:14;;;;;;;3.1;1.6;;;;;;;4.61;95.51758;938.8212;;;;
2024/02/13 06:10:39;;;;;;;2.5;1.4;;;;;;;4.64;95.20801;938.881;;;;
2024/02/13 06:13:04;;;;;;;2.6;1.9;;;;;;;4.64;95.14258;938.8442;;;;
2024/02/13 06:15:29;;;;;;;3.4;2;;;;;;;4.72;95.01367;938.932;;;;
2024/02/13 06:17:54;;;;;;;2.8;1.8;;;;;;;4.79;94.99414;938.9869;;;;
2024/02/13 06:20:20;;;;;;;3.3;1.8;;;;;;;4.82;94.86523;939.0055;;;;
2024/02/13 06:22:45;;;;;;;3.4;2.1;;;;;;;4.88;94.53027;939.0302;;;;
2024/02/13 06:25:11;;;;;;;3.9;2.3;;;;;;;4.87;94.56152;939.0387;;;;
2024/02/13 06:27:35;;;;;;;4.1;2.7;;;;;;;4.87;94.71973;939.0648;;;;
2024/02/13 06:30:00;;;;;;;3.7;2.9;;;;;;;4.83;94.8584;939.1006;;;;
2024/02/13 06:32:25;;;;;;;3.3;2.5;;;;;;;4.82;95.01367;939.1414;;;;
2024/02/13 06:34:52;;;;;;;4.1;2.5;;;;;;;4.82;95.12402;939.1128;;;;
2024/02/13 06:37:16;;;;;;;4.7;2.7;;;;;;;4.82;95.03613;939.2525;;;;
2024/02/13 06:39:41;;;;;;;4.6;2.8;;;;;;;4.84;94.91406;939.2491;;;;
2024/02/13 06:42:06;;;;;;;3.7;2.4;;;;;;;4.82;95.02246;939.3013;;;;
2024/02/13 06:44:33;;;;;;;3.3;2.1;;;;;;;4.77;94.68652;939.335;;;;
2024/02/13 06:46:57;;;;;;;3.7;2.2;;;;;;;4.85;94.8623;939.3353;;;;
2024/02/13 06:49:22;;;;;;;3.4;2.5;;;;;;;4.88;94.86816;939.3616;;;;
2024/02/13 06:51:46;;;;;;;4.5;2.6;;;;;;;4.88;94.89063;939.3814;;;;
2024/02/13 06:54:12;;;;;;;2.9;2.3;;;;;;;4.88;94.83398;939.4375;;;;
2024/02/13 06:56:38;;;;;;;4;3;;;;;;;4.82;94.88965;939.4402;;;;
2024/02/13 06:59:02;;;;;;;5.1;3.3;;;;;;;4.85;94.72656;939.4846;;;;
2024/02/13 07:01:27;;;;;;;3.5;2.8;;;;;;;4.85;94.7832;939.4728;;;;
2024/02/13 07:03:52;;;;;;;5.6;2.9;;;;;;;4.83;94.34863;939.5052;;;;
2024/02/13 07:06:18;;;;;;;3;2.4;;;;;;;4.94;93.7998;939.4812;;;;
2024/02/13 07:08:43;;;;;;;3.9;2.6;;;;;;;4.87;94.31348;939.512;;;;
2024/02/13 07:11:08;;;;;;;3.1;2.2;;;;;;;4.91;94.94141;939.5251;;;;
2024/02/13 07:13:33;;;;;;;2.7;2;;;;;;;4.98;95.03613;939.5328;;;;
2024/02/13 07:15:58;;;;;;;4.4;1.9;;;;;;;5.02;94.77441;939.5463;;;;
2024/02/13 07:18:23;;;;;;;2.1;1.6;;;;;;;5.08;94.46094;939.5806;;;;
2024/02/13 07:20:49;;;;;;;3.3;1.7;;;;;;;5.14;94.24805;939.6014;;;;
2024/02/13 07:23:14;;;;;;;2.3;1.9;;;;;;;5.02;94.56152;939.6744;;;;
2024/02/13 07:25:39;;;;;;;4.8;1.7;;;;;;;5.02;94.71973;939.6797;;;;
2024/02/13 07:28:04;;;;;;;2.1;1.7;;;;;;;4.99;94.62109;939.6603;;;;
2024/02/13 07:30:33;;;;;;;3.5;1.9;;;;;;;4.99;94.67773;939.7622;;;;
2024/02/13 07:32:57;;;;;;;2.7;1.9;;;;;;;5.11;94.2998;939.7522;;;;
2024/02/13 07:35:22;;;;;;;2.4;2.2;;;;;;;5.12;94.60449;939.6387;;;;
2024/02/13 07:37:47;;;;;;;5.3;4.4;;;;;;;5.1;94.68164;939.6855;;;;
2024/02/13 07:40:13;;;;;;;6.4;5;;;;;;;5.1;95.08496;939.6688;;;;
2024/02/13 07:42:37;;;;;;;5.4;4.1;;;;;;;5.1;95.17773;939.7045;;;;
2024/02/13 07:45:03;;;;;;;5.4;3.7;;;;;;;5.18;95.33984;939.7819;;;;
2024/02/13 07:47:28;;;;;;;3.5;2.9;;;;;;;5.21;95.27832;939.7745;;;;
2024/02/13 07:49:53;;;;;;;4.4;3.2;;;;;;;5.25;94.71387;939.7419;;;;
2024/02/13 07:52:18;;;;;;;4.1;3.6;;;;;;;5.32;94.41406;939.7788;;;;
2024/02/13 07:54:43;;;;;;;5.6;3.9;;;;;;;5.43;94.65234;939.8094;;;;
2024/02/13 07:57:08;;;;;;;31.2;21.5;;;;;;;5.54;95.00293;939.8717;;;;
2024/02/13 07:59:34;;;;;;;36;22.9;;;;;;;5.51;95.2793;939.8719;;;;
2024/02/13 08:01:59;;;;;;;11.9;8.2;;;;;;;5.57;94.5127;939.8672;;;;
2024/02/13 08:04:24;;;;;;;6.3;4.1;;;;;;;5.61;93.21094;939.9169;;;;
2024/02/13 08:06:49;;;;;;;6.2;4.4;;;;;;;5.63;92.87891;939.8687;;;;
2024/02/13 08:09:14;;;;;;;6.7;5.6;;;;;;;5.7;92.75684;939.937;;;;
2024/02/13 08:11:41;;;;;;;6.9;4.9;;;;;;;5.74;93.27637;939.9779;;;;
2024/02/13 08:14:04;;;;;;;3.9;3.5;;;;;;;5.79;93.58008;939.981;;;;
2024/02/13 08:16:30;;;;;;;4.3;3.9;;;;;;;5.86;93.39063;939.9461;;;;
2024/02/13 08:18:55;;;;;;;5.8;5.2;;;;;;;5.85;93.34375;940.0486;;;;
2024/02/13 08:21:21;;;;;;;5.7;3.7;;;;;;;5.84;92.47363;940.0538;;;;
2024/02/13 08:23:45;;;;;;;5.3;3.8;;;;;;;5.94;92.94531;939.9589;;;;
2024/02/13 08:26:10;;;;;;;5.3;3.1;;;;;;;5.97;92.84961;940.0364;;;;
2024/02/13 08:28:37;;;;;;;5.5;3.1;;;;;;;6.01;92.95117;940.0342;;;;
2024/02/13 08:31:51;;;;;;;6.9;3.3;;;;;;;6.13;92.5459;940.0052;;;;
2024/02/13 08:34:15;;;;;;;6.1;3.4;;;;;;;6.27;92.42969;940.0726;;;;
2024/02/13 08:36:40;;;;;;;5.5;3.3;;;;;;;6.78;93.74121;939.9005;;;;
2024/02/13 08:39:05;;;;;;;4;2.8;;;;;;;7.29;90.75781;939.9014;;;;
2024/02/13 08:41:31;;;;;;;4.3;1.9;;;;;;;7.48;84.93457;939.9481;;;;
2024/02/13 08:43:56;;;;;;;4;1.7;;;;;;;7.57;84.18164;939.9732;;;;
2024/02/13 08:46:23;;;;;;;2.7;1.8;;;;;;;7.87;84.28516;939.9188;;;;
2024/02/13 08:48:45;;;;;;;3;1.9;;;;;;;8.42;82.08887;939.8887;;;;
2024/02/13 08:51:12;;;;;;;2.8;2.5;;;;;;;8.62;80.69434;939.8731;;;;
2024/02/13 08:53:36;;;;;;;4;2.9;;;;;;;8.97;79.88574;939.9125;;;;
2024/02/13 08:56:01;;;;;;;3.7;2.4;;;;;;;9.71;77.01367;939.9719;;;;
2024/02/13 08:58:26;;;;;;;3.5;2.3;;;;;;;9.63;74.56055;939.8674;;;;
2024/02/13 09:00:51;;;;;;;2.9;1.9;;;;;;;9.79;76.82227;939.9111;;;;
2024/02/13 09:03:16;;;;;;;2.9;1.7;;;;;;;10.49;74.11523;939.9283;;;;
2024/02/13 09:05:42;;;;;;;2.2;1.6;;;;;;;10.87;72.35156;939.8376;;;;
2024/02/13 09:08:07;;;;;;;3.9;1.6;;;;;;;11.36;70.49023;939.7802;;;;
2024/02/13 09:10:32;;;;;;;1.7;1.6;;;;;;;11.76;69.47852;939.8309;;;;
2024/02/13 09:12:57;;;;;;;3.2;2.2;;;;;;;12.06;66.59277;939.8378;;;;
2024/02/13 09:15:23;;;;;;;3.1;2.2;;;;;;;12.07;64.43848;939.8162;;;;
2024/02/13 09:17:48;;;;;;;3.7;2.3;;;;;;;12.64;66.49805;939.7307;;;;
2024/02/13 09:20:14;;;;;;;4.4;2.6;;;;;;;13.09;63.09863;939.742;;;;
2024/02/13 09:22:38;;;;;;;3.1;1.8;;;;;;;13.2;59.61133;939.8002;;;;
2024/02/13 09:25:03;;;;;;;3.2;2.5;;;;;;;13.3;58.1084;939.8158;;;;
2024/02/13 09:27:28;;;;;;;4;2.3;;;;;;;13.68;59.91895;939.8422;;;;
2024/02/13 09:29:55;;;;;;;2.5;1.4;;;;;;;14.03;59.18359;939.837;;;;
2024/02/13 09:32:19;;;;;;;1.6;1.1;;;;;;;14.32;58.07227;939.795;;;;
2024/02/13 09:34:44;;;;;;;2.5;1;;;;;;;14.51;57.28906;939.755;;;;
2024/02/13 09:37:09;;;;;;;1.8;1.1;;;;;;;14.75;56.38867;939.8746;;;;
2024/02/13 09:39:34;;;;;;;1.8;0.9;;;;;;;14.74;56.27148;939.8762;;;;
2024/02/13 09:41:59;;;;;;;1.8;0.9;;;;;;;14.78;55.79199;939.8569;;;;
2024/02/13 09:44:33;;;;;;;1.3;0.9;;;;;;;15.44;55.57715;939.8095;;;;
2024/02/13 09:46:58;;;;;;;1.5;1;;;;;;;15.49;52.73047;939.7867;;;;
2024/02/13 09:49:24;;;;;;;2.9;1;;;;;;;15.5;54.68262;939.8525;;;;
2024/02/13 09:51:49;;;;;;;1.9;1.1;;;;;;;16.14;51.84863;939.8308;;;;
2024/02/13 09:54:15;;;;;;;3.4;1.3;;;;;;;16.29;51.4834;939.8142;;;;
2024/02/13 09:58:06;;;;;;;1;0.8;;;;;;;16.64;50.37891;939.8055;;;;
2024/02/13 10:00:32;;;;;;;3.2;1.2;;;;;;;16.5;49.45898;939.822;;;;
2024/02/13 10:02:57;;;;;;;1.4;1.1;;;;;;;16.48;49.49219;939.7443;;;;
2024/02/13 10:05:21;;;;;;;1.3;0.9;;;;;;;16.86;49.64063;939.7528;;;;
2024/02/13 10:07:46;;;;;;;1.7;1;;;;;;;17.05;47.80762;939.6968;;;;
2024/02/13 10:10:12;;;;;;;1.7;0.9;;;;;;;16.66;46.24707;939.6791;;;;
2024/02/13 10:12:39;;;;;;;2;0.8;;;;;;;16.53;48.44336;939.6802;;;;
2024/02/13 10:15:02;;;;;;;1.5;0.9;;;;;;;16.57;49.29492;939.7046;;;;
2024/02/13 10:17:28;;;;;;;2.2;0.9;;;;;;;16.82;46.64648;939.6517;;;;
2024/02/13 10:19:52;;;;;;;2.7;1;;;;;;;17.12;47.21191;939.6998;;;;
2024/02/13 10:22:18;;;;;;;2.2;1.1;;;;;;;17.2;46.60547;939.6779;;;;
2024/02/13 10:24:42;;;;;;;2.7;1;;;;;;;17.07;45.53711;939.6652;;;;
2024/02/13 10:27:09;;;;;;;4;0.9;;;;;;;17.48;45.68457;939.6849;;;;
2024/02/13 10:29:33;;;;;;;2.6;1;;;;;;;17.82;43.14258;939.6739;;;;
2024/02/13 10:31:58;;;;;;;0.8;0.7;;;;;;;17.92;41.83984;939.6774;;;;
2024/02/13 10:34:23;;;;;;;1.6;0.9;;;;;;;17.83;41.0293;939.6611;;;;
2024/02/13 10:36:48;;;;;;;1.4;0.8;;;;;;;17.62;41.56738;939.6361;;;;
2024/02/13 10:39:14;;;;;;;2;1;;;;;;;17.75;42.71875;939.6201;;;;
2024/02/13 10:41:39;;;;;;;1.7;0.9;;;;;;;17.88;41.66113;939.6305;;;;
2024/02/13 10:44:04;;;;;;;1.2;0.9;;;;;;;17.24;42.44727;939.5867;;;;
2024/02/13 10:46:33;;;;;;;1.7;0.9;;;;;;;17.77;43.58984;939.5997;;;;
2024/02/13 10:49:01;;;;;;;0.8;0.8;;;;;;;17.9;40.88574;939.5123;;;;
2024/02/13 10:51:25;;;;;;;2.9;1.1;;;;;;;17.39;41.73145;939.533;;;;
2024/02/13 10:53:49;;;;;;;2.6;1;;;;;;;16.53;42.95898;939.6183;;;;
2024/02/13 10:56:14;;;;;;;1.4;0.9;;;;;;;16.46;42.95117;939.6464;;;;
2024/02/13 10:58:41;;;;;;;2.5;1;;;;;;;15.33;44.50195;939.6904;;;;
2024/02/13 11:01:04;;;;;;;2.4;1.3;;;;;;;14.89;46.63672;939.7541;;;;
2024/02/13 11:03:29;;;;;;;3.2;1.1;;;;;;;14.65;47.28027;939.7283;;;;
2024/02/13 11:05:55;;;;;;;1.8;1.3;;;;;;;15.2;47.375;939.7271;;;;
2024/02/13 11:08:20;;;;;;;3.1;1.1;;;;;;;15.88;46.06152;939.6802;;;;
2024/02/13 11:10:45;;;;;;;2.1;1.1;;;;;;;16.39;45.59473;939.6685;;;;
2024/02/13 11:13:11;;;;;;;1.2;1;;;;;;;16.14;44.75879;939.6973;;;;
2024/02/13 11:15:37;;;;;;;2.4;1;;;;;;;16.29;45.20117;939.6326;;;;
2024/02/13 11:18:01;;;;;;;2.4;1.2;;;;;;;15.95;43.86035;939.6563;;;;
2024/02/13 11:20:27;;;;;;;1.3;1;;;;;;;15.44;44.89551;939.6394;;;;
2024/02/13 11:22:51;;;;;;;3.8;1.1;;;;;;;15.17;46.74805;939.6422;;;;
2024/02/13 11:25:16;;;;;;;1.6;1.1;;;;;;;15.09;47.08594;939.5648;;;;
2024/02/13 11:27:44;;;;;;;1.6;1;;;;;;;14.96;47.00195;939.635;;;;
2024/02/13 11:30:07;;;;;;;2.3;1.2;;;;;;;14.84;47.86621;939.6525;;;;
2024/02/13 11:32:32;;;;;;;3.8;1.3;;;;;;;14.63;48.67285;939.6306;;;;
2024/02/13 11:34:57;;;;;;;1.8;1.1;;;;;;;14.73;48.53418;939.6359;;;;
2024/02/13 11:37:27;;;;;;;2.6;1.2;;;;;;;14.92;48.08203;939.5726;;;;
2024/02/13 11:39:48;;;;;;;2.5;1.1;;;;;;;15;47.67676;939.6164;;;;
2024/02/13 11:42:13;;;;;;;2.4;1.3;;;;;;;14.71;49.05078;939.5895;;;;
2024/02/13 11:44:38;;;;;;;1.8;0.9;;;;;;;14.63;48.96094;939.541;;;;
2024/02/13 11:47:06;;;;;;;1.5;0.9;;;;;;;14.52;47.94531;939.5514;;;;
2024/02/13 11:49:30;;;;;;;2.9;1.3;;;;;;;14.7;47.13574;939.4933;;;;
2024/02/13 11:51:54;;;;;;;1.2;0.9;;;;;;;14.76;45.2627;939.4441;;;;
2024/02/13 11:54:19;;;;;;;1.4;0.9;;;;;;;14.61;46.31934;939.4942;;;;
2024/02/13 11:56:44;;;;;;;2;0.9;;;;;;;14.28;46.26172;939.4587;;;;
2024/02/13 11:59:10;;;;;;;1.3;0.9;;;;;;;13.93;46.81152;939.3956;;;;
2024/02/13 12:01:37;;;;;;;1.2;0.8;;;;;;;13.88;47.89941;939.4534;;;;
2024/02/13 12:04:02;;;;;;;2.2;0.9;;;;;;;13.65;49.28711;939.5134;;;;
2024/02/13 12:06:24;;;;;;;2.3;0.8;;;;;;;13.58;49.60254;939.405;;;;
2024/02/13 12:08:50;;;;;;;2;0.9;;;;;;;13.48;49.36133;939.4691;;;;
2024/02/13 12:11:16;;;;;;;1.8;0.9;;;;;;;13.08;48.82129;939.455;;;;
2024/02/13 12:13:39;;;;;;;1.7;0.9;;;;;;;13.11;49.23828;939.4615;;;;
2024/02/13 12:16:09;;;;;;;1.5;0.9;;;;;;;13.05;47.6582;939.3774;;;;
2024/02/13 12:18:33;;;;;;;2;0.9;;;;;;;13.21;47.94043;939.4246;;;;
2024/02/13 12:20:58;;;;;;;1.9;1;;;;;;;13.07;50.08398;939.3751;;;;
2024/02/13 12:23:23;;;;;;;2.1;1;;;;;;;12.78;50.0166;939.3747;;;;
2024/02/13 12:25:50;;;;;;;2.2;0.9;;;;;;;13.02;51.07813;939.4102;;;;
2024/02/13 12:28:13;;;;;;;3.9;1.2;;;;;;;12.83;48.72461;939.3655;;;;
2024/02/13 12:30:39;;;;;;;1.2;0.8;;;;;;;12.61;49.92773;939.3611;;;;
2024/02/13 12:33:06;;;;;;;1.5;0.8;;;;;;;12.74;50.28711;939.3195;;;;
2024/02/13 12:35:35;;;;;;;2.2;1;;;;;;;12.7;49.36426;939.3312;;;;
2024/02/13 12:37:54;;;;;;;2.1;0.9;;;;;;;12.44;50.21777;939.3053;;;;
2024/02/13 12:40:20;;;;;;;2.1;0.9;;;;;;;12.32;49.58398;939.3269;;;;
2024/02/13 12:42:50;;;;;;;3.7;1;;;;;;;11.95;50.0127;939.3014;;;;
2024/02/13 12:45:21;;;;;;;1.7;0.8;;;;;;;11.98;51.87109;939.2896;;;;
2024/02/13 12:47:46;;;;;;;1.5;0.7;;;;;;;12.12;49.6416;939.277;;;;
2024/02/13 12:50:13;;;;;;;3.4;1;;;;;;;11.83;49.96484;939.2927;;;;
2024/02/13 12:52:36;;;;;;;1.4;1;;;;;;;11.95;51.04395;939.2982;;;;
2024/02/13 12:55:03;;;;;;;1.4;0.7;;;;;;;12.08;50.02734;939.3191;;;;
2024/02/13 12:57:29;;;;;;;2.2;0.8;;;;;;;12.06;50.40332;939.2919;;;;
2024/02/13 12:59:52;;;;;;;0.7;0.5;;;;;;;12.07;50.1748;939.343;;;;
2024/02/13 13:02:21;;;;;;;1.9;1;;;;;;;12.05;49.80566;939.287;;;;
2024/02/13 13:04:42;;;;;;;1.1;0.6;;;;;;;11.94;49.65625;939.2558;;;;
2024/02/13 13:07:07;;;;;;;1.7;0.7;;;;;;;11.92;49.71094;939.211;;;;
2024/02/13 13:09:34;;;;;;;1.4;0.6;;;;;;;11.88;50.79395;939.2451;;;;
2024/02/13 13:11:58;;;;;;;2;0.9;;;;;;;11.78;49.44336;939.1605;;;;
2024/02/13 13:14:23;;;;;;;0.7;0.6;;;;;;;11.72;49.15039;939.1326;;;;
2024/02/13 13:16:48;;;;;;;2.2;0.6;;;;;;;11.72;49.25391;939.1016;;;;
2024/02/13 13:19:14;;;;;;;1.2;0.5;;;;;;;11.78;49.03027;939.1275;;;;
2024/02/13 13:21:39;;;;;;;1.2;0.6;;;;;;;11.67;48.92676;939.0463;;;;
2024/02/13 13:24:04;;;;;;;1.5;0.7;;;;;;;11.76;48.39746;939.0587;;;;
2024/02/13 13:26:32;;;;;;;2.9;0.9;;;;;;;11.68;48.00098;939.0406;;;;
2024/02/13 13:28:54;;;;;;;2.3;0.7;;;;;;;11.51;47.51172;939.0297;;;;
2024/02/13 13:31:19;;;;;;;1.4;0.7;;;;;;;11.39;47.83008;939.0708;;;;
2024/02/13 13:33:48;;;;;;;1;0.7;;;;;;;11.46;49.50977;939.0605;;;;
2024/02/13 13:36:12;;;;;;;0.8;0.5;;;;;;;11.39;49.31836;939.0779;;;;
2024/02/13 13:38:45;;;;;;;1.5;0.7;;;;;;;11.42;48.56738;939.0546;;;;
2024/02/13 13:41:07;;;;;;;1.7;0.6;;;;;;;11.22;49.19629;939.0775;;;;
2024/02/13 13:43:31;;;;;;;1.5;0.9;;;;;;;11.21;49.97266;939.0492;;;;
2024/02/13 13:45:59;;;;;;;2.2;0.7;;;;;;;11.34;48.68457;939.041;;;;
2024/02/13 13:48:21;;;;;;;1.5;0.7;;;;;;;11.38;48.37891;939.0181;;;;
2024/02/13 13:50:47;;;;;;;2;0.8;;;;;;;11.46;49.77344;939.0891;;;;
2024/02/13 13:53:13;;;;;;;1.5;1;;;;;;;11.4;49.45703;939.0717;;;;
2024/02/13 13:55:37;;;;;;;0.9;0.7;;;;;;;11.34;48.82129;939.0394;;;;
2024/02/13 13:58:02;;;;;;;1.2;0.7;;;;;;;11.2;48.90723;938.9893;;;;
2024/02/13 14:00:30;;;;;;;1.1;0.6;;;;;;;11.24;49.59863;939.0305;;;;
2024/02/13 14:02:52;;;;;;;1.3;0.7;;;;;;;11.23;48.93555;939.0425;;;;
2024/02/13 14:05:17;;;;;;;0.7;0.7;;;;;;;11.17;49.17871;939.1285;;;;
2024/02/13 14:07:42;;;;;;;0.9;0.5;;;;;;;10.67;49.56738;939.0676;;;;
2024/02/13 14:10:12;;;;;;;0.8;0.6;;;;;;;10.76;49.85156;939.098;;;;
2024/02/13 14:12:33;;;;;;;1.4;0.8;;;;;;;10.94;49.62109;939.147;;;;
2024/02/13 14:14:58;;;;;;;2.2;0.6;;;;;;;10.71;49.68652;939.0935;;;;
2024/02/13 14:17:23;;;;;;;1.6;0.7;;;;;;;10.67;50.19531;939.1822;;;;
2024/02/13 14:19:48;;;;;;;3.4;0.7;;;;;;;10.74;50.07813;939.2028;;;;
2024/02/13 14:22:14;;;;;;;2.8;0.7;;;;;;;10.84;49.73535;939.1652;;;;
2024/02/13 14:24:39;;;;;;;1.3;0.6;;;;;;;10.95;49.87402;939.0291;;;;
2024/02/13 14:27:04;;;;;;;1;0.5;;;;;;;10.79;49.62695;939.15;;;;
2024/02/13 14:29:29;;;;;;;0.6;0.5;;;;;;;10.71;49.62988;939.1572;;;;